Date,TemperatureHighF,TemperatureAvgF,TemperatureLowF,DewpointHighF,DewpointAvgF,DewpointLowF,HumidityHigh,HumidityAvg,HumidityLow,PressureMaxIn,PressureMinIn,WindSpeedMaxMPH,WindSpeedAvgMPH,GustSpeedMaxMPH,PrecipitationSumIn
2013-2-1,40,34,22,28,10,-2,68,40,18,30.10,29.61,16,4,28,0.05
2013-2-2,42,32,17,32,14,7,91,51,26,30.11,29.76,8,2,14,0.01
2013-2-3,51,40,32,36,28,21,96,65,34,29.77,29.59,12,2,24,0.01
2013-2-4,51,39,29,28,23,18,71,53,33,29.89,29.74,7,2,13,0.00
2013-2-5,66,47,35,36,31,27,78,56,30,29.74,29.65,8,2,14,0.00
2013-2-6,66,48,33,35,27,17,87,51,16,30.02,29.73,8,1,13,0.00
2013-2-7,43,38,35,37,33,25,98,81,58,30.07,29.78,6,2,12,0.39
2013-2-8,61,44,35,46,36,26,98,75,34,29.83,29.59,11,4,21,0.14
2013-2-9,62,43,32,26,19,5,69,44,12,30.09,29.82,8,2,15,0.00
2013-2-10,57,40,29,40,23,18,87,55,24,30.21,29.92,8,1,13,0.15
2013-2-11,57,49,42,56,48,40,99,96,86,29.92,29.70,8,2,12,0.07
2013-2-12,62,51,42,52,32,20,97,50,20,29.86,29.68,8,2,16,0.01
2013-2-13,49,44,40,45,42,33,98,90,64,29.71,29.40,8,1,16,0.26
2013-2-14,57,45,31,34,32,28,87,61,36,29.81,29.60,7,2,13,0.00
2013-2-15,65,48,31,44,33,26,96,61,25,29.84,29.67,11,2,17,0.00
2013-2-16,42,36,29,34,28,14,92,73,45,29.73,29.59,11,2,18,0.04
2013-2-17,42,30,22,16,8,1,64,40,19,30.00,29.70,14,4,26,0.01
2013-2-18,58,38,18,26,18,11,79,50,21,30.12,29.94,10,2,14,0.00
2013-2-19,51,41,36,44,33,19,96,76,44,29.96,29.61,11,3,18,0.24
2013-2-20,56,42,28,20,11,-2,63,32,10,29.88,29.74,8,2,16,0.00
2013-2-21,64,43,24,25,14,3,72,37,10,30.01,29.85,7,1,9,0.00
2013-2-22,43,35,33,34,33,24,97,91,49,30.07,29.87,5,1,9,0.46
2013-2-23,43,36,34,42,35,34,99,98,96,29.93,29.74,5,1,9,0.12
2013-2-24,67,51,41,46,33,19,99,59,17,30.12,29.89,10,2,21,0.04
2013-2-25,46,38,33,26,24,21,68,56,43,30.29,30.12,4,1,10,0.00
2013-2-26,39,36,32,39,34,24,99,91,64,30.21,29.68,8,2,14,0.89
2013-2-27,60,48,37,42,38,33,99,73,42,29.88,29.72,9,2,16,0.01
2013-2-28,51,43,34,38,28,24,81,56,36,30.68,29.78,11,3,20,0.00